createdAt,value
2018-12-13T00:00:30.022Z,62.90
2018-12-13T00:01:03.485Z,62.90
2018-12-13T00:01:36.933Z,63.00
2018-12-13T00:02:10.993Z,63.00
2018-12-13T00:02:44.581Z,62.90
2018-12-13T00:03:18.853Z,63.00
2018-12-13T00:03:52.273Z,63.70
2018-12-13T00:04:25.721Z,63.00
2018-12-13T00:04:59.263Z,63.20
2018-12-13T00:05:32.704Z,63.20
2018-12-13T00:06:06.255Z,63.10
2018-12-13T00:06:39.897Z,63.20
2018-12-13T00:07:13.301Z,63.30
2018-12-13T00:07:46.771Z,63.50
2018-12-13T00:08:20.206Z,63.50
2018-12-13T00:08:54.558Z,63.60
2018-12-13T00:09:28.036Z,63.50
2018-12-13T00:10:02.004Z,63.50
2018-12-13T00:10:35.598Z,63.40
2018-12-13T00:11:09.078Z,63.40
2018-12-13T00:11:42.518Z,63.50
2018-12-13T00:12:16.662Z,63.50
2018-12-13T00:12:50.107Z,63.60
2018-12-13T00:13:23.635Z,63.60
2018-12-13T00:13:57.113Z,63.50
2018-12-13T00:14:30.839Z,63.60
2018-12-13T00:15:04.874Z,63.70
2018-12-13T00:15:38.318Z,63.70
2018-12-13T00:16:11.789Z,63.80
2018-12-13T00:16:45.853Z,63.80
2018-12-13T00:17:19.367Z,63.70
2018-12-13T00:17:52.873Z,63.90
2018-12-13T00:18:26.996Z,64.00
2018-12-13T00:19:01.225Z,64.20
2018-12-13T00:19:34.643Z,64.00
2018-12-13T00:20:08.886Z,64.00
2018-12-13T00:20:42.345Z,64.00
2018-12-13T00:21:15.802Z,64.00
2018-12-13T00:21:49.246Z,64.00
2018-12-13T00:22:23.361Z,64.00
2018-12-13T00:22:56.801Z,63.90
2018-12-13T00:23:30.293Z,64.00
2018-12-13T00:24:03.845Z,64.10
2018-12-13T00:24:37.760Z,64.10
2018-12-13T00:25:11.253Z,64.20
2018-12-13T00:25:44.992Z,64.30
2018-12-13T00:26:18.455Z,64.30
2018-12-13T00:26:51.960Z,64.30
2018-12-13T00:27:25.428Z,64.20
2018-12-13T00:27:58.955Z,64.20
2018-12-13T00:28:32.484Z,64.20
2018-12-13T00:29:06.620Z,64.30
2018-12-13T00:29:40.137Z,64.30
2018-12-13T00:30:13.608Z,64.20
2018-12-13T00:30:47.035Z,64.30
2018-12-13T00:31:20.538Z,64.20
2018-12-13T00:31:53.981Z,64.40
2018-12-13T00:32:27.476Z,64.30
2018-12-13T00:33:00.949Z,64.40
2018-12-13T00:33:34.406Z,64.30
2018-12-13T00:34:07.939Z,64.30
2018-12-13T00:34:41.435Z,64.40
2018-12-13T00:35:14.941Z,64.40
2018-12-13T00:35:48.374Z,64.30
2018-12-13T00:36:21.875Z,64.20
2018-12-13T00:36:55.314Z,64.40
2018-12-13T00:37:29.362Z,64.10
2018-12-13T00:38:03.762Z,64.30
2018-12-13T00:38:37.204Z,64.50
2018-12-13T00:39:10.701Z,64.50
2018-12-13T00:39:44.154Z,64.30
2018-12-13T00:40:17.678Z,64.40
2018-12-13T00:40:51.114Z,64.30
2018-12-13T00:41:24.559Z,64.40
2018-12-13T00:41:58.025Z,64.40
2018-12-13T00:42:31.515Z,64.40
2018-12-13T00:43:04.977Z,64.50
2018-12-13T00:43:38.627Z,64.50
2018-12-13T00:44:12.147Z,64.50
2018-12-13T00:44:46.335Z,64.40
2018-12-13T00:45:20.434Z,64.40
2018-12-13T00:45:53.875Z,64.60
2018-12-13T00:46:27.539Z,64.60
2018-12-13T00:47:00.996Z,64.70
2018-12-13T00:47:34.459Z,64.70
2018-12-13T00:48:08.434Z,64.80
2018-12-13T00:48:41.926Z,64.80
2018-12-13T00:49:15.407Z,64.80
2018-12-13T00:49:48.863Z,64.90
2018-12-13T00:50:22.419Z,65.10
2018-12-13T00:50:56.049Z,65.10
2018-12-13T00:51:29.501Z,65.00
2018-12-13T00:52:02.953Z,65.00
2018-12-13T00:52:36.458Z,64.90
2018-12-13T00:53:09.955Z,65.00
2018-12-13T00:53:43.409Z,64.90
2018-12-13T00:54:16.906Z,65.00
2018-12-13T00:54:50.379Z,64.90
2018-12-13T00:55:23.903Z,64.90
2018-12-13T00:55:57.369Z,64.80
2018-12-13T00:56:30.837Z,64.80
2018-12-13T00:57:04.459Z,64.80
2018-12-13T00:57:37.963Z,64.80
2018-12-13T00:58:11.759Z,64.70
2018-12-13T00:58:45.212Z,64.70
2018-12-13T00:59:18.693Z,64.50
2018-12-13T00:59:52.131Z,64.40
2018-12-13T01:00:25.644Z,64.40
2018-12-13T01:01:01.914Z,64.30
2018-12-13T01:01:35.409Z,64.40
2018-12-13T01:02:08.954Z,64.40
2018-12-13T01:02:42.381Z,64.40
2018-12-13T01:03:16.437Z,64.50
2018-12-13T01:03:49.872Z,64.40
2018-12-13T01:04:24.199Z,64.30
2018-12-13T01:04:57.671Z,64.30
2018-12-13T01:05:31.278Z,64.20
2018-12-13T01:06:04.753Z,64.30
2018-12-13T01:06:38.404Z,64.30
2018-12-13T01:07:11.918Z,64.30
2018-12-13T01:07:45.341Z,64.30
2018-12-13T01:08:18.799Z,64.50
2018-12-13T01:08:52.282Z,64.50
2018-12-13T01:09:25.769Z,64.30
2018-12-13T01:09:59.234Z,64.20
2018-12-13T01:10:32.703Z,64.20
2018-12-13T01:11:06.333Z,64.30
2018-12-13T01:11:39.843Z,64.40
2018-12-13T01:12:13.378Z,64.30
2018-12-13T01:12:46.868Z,64.20
2018-12-13T01:13:20.348Z,64.10
2018-12-13T01:13:53.815Z,64.20
2018-12-13T01:14:27.408Z,64.30
2018-12-13T01:15:00.885Z,64.20
2018-12-13T01:15:35.067Z,64.20
2018-12-13T01:16:12.757Z,64.30
2018-12-13T01:16:46.215Z,64.40
2018-12-13T01:17:19.740Z,64.20
2018-12-13T01:17:53.201Z,64.00
2018-12-13T01:18:26.711Z,64.00
2018-12-13T01:19:00.184Z,63.90
2018-12-13T01:19:33.670Z,63.80
2018-12-13T01:20:07.291Z,63.80
2018-12-13T01:20:41.684Z,63.80
2018-12-13T01:21:20.594Z,63.70
2018-12-13T01:21:51.214Z,63.70
2018-12-13T01:22:24.762Z,63.70
2018-12-13T01:22:58.236Z,63.80
2018-12-13T01:23:32.646Z,63.90
2018-12-13T01:24:06.070Z,63.80
2018-12-13T01:24:39.625Z,63.80
2018-12-13T01:25:13.185Z,63.80
2018-12-13T01:25:47.126Z,63.70
2018-12-13T01:26:20.561Z,63.80
2018-12-13T01:26:54.090Z,63.80
2018-12-13T01:27:28.462Z,63.80
2018-12-13T01:28:01.991Z,63.80
2018-12-13T01:28:35.433Z,63.80
2018-12-13T01:29:08.902Z,63.80
2018-12-13T01:29:42.380Z,63.90
2018-12-13T01:30:16.562Z,64.00
2018-12-13T01:30:50.125Z,63.80
2018-12-13T01:31:23.597Z,63.80
2018-12-13T01:31:57.082Z,63.80
2018-12-13T01:32:30.542Z,64.00
2018-12-13T01:33:03.985Z,64.10
2018-12-13T01:33:37.437Z,64.20
2018-12-13T01:34:10.921Z,63.90
2018-12-13T01:34:44.369Z,63.90
2018-12-13T01:35:18.030Z,63.90
2018-12-13T01:35:51.638Z,64.00
2018-12-13T01:36:25.133Z,64.00
2018-12-13T01:36:58.773Z,63.90
2018-12-13T01:37:32.818Z,64.00
2018-12-13T01:38:06.663Z,64.00
2018-12-13T01:38:40.169Z,64.00
2018-12-13T01:39:13.639Z,64.00
2018-12-13T01:39:47.144Z,64.10
2018-12-13T01:40:20.628Z,64.00
2018-12-13T01:40:54.047Z,63.90
2018-12-13T01:41:27.957Z,64.00
2018-12-13T01:42:01.377Z,64.10
2018-12-13T01:42:35.475Z,64.00
2018-12-13T01:43:09.441Z,64.00
2018-12-13T01:43:42.888Z,63.90
2018-12-13T01:44:16.413Z,64.00
2018-12-13T01:44:49.909Z,63.90
2018-12-13T01:45:23.561Z,63.90
2018-12-13T01:45:57.461Z,63.90
2018-12-13T01:46:31.113Z,63.90
2018-12-13T01:47:04.908Z,63.80
2018-12-13T01:47:38.362Z,63.80
2018-12-13T01:48:11.822Z,63.70
2018-12-13T01:48:45.336Z,63.80
2018-12-13T01:49:19.447Z,63.80
2018-12-13T01:49:52.931Z,63.80
2018-12-13T01:50:26.621Z,63.90
2018-12-13T01:51:00.130Z,63.90
2018-12-13T01:51:33.562Z,63.80
2018-12-13T01:52:07.057Z,63.70
2018-12-13T01:52:40.479Z,63.70
2018-12-13T01:53:13.929Z,63.70
2018-12-13T01:53:47.416Z,63.70
2018-12-13T01:54:20.844Z,64.30
2018-12-13T01:54:54.257Z,63.90
2018-12-13T01:55:28.004Z,63.90
2018-12-13T01:56:01.473Z,63.70
2018-12-13T01:56:34.951Z,63.60
2018-12-13T01:57:08.457Z,63.60
2018-12-13T01:57:42.533Z,63.60
2018-12-13T01:58:16.047Z,63.70
2018-12-13T01:58:49.494Z,63.70
2018-12-13T01:59:22.966Z,63.60
2018-12-13T01:59:56.373Z,63.80
2018-12-13T02:00:29.914Z,63.80
2018-12-13T02:01:03.377Z,64.00
2018-12-13T02:01:36.833Z,63.90
2018-12-13T02:02:10.226Z,63.90
2018-12-13T02:02:43.702Z,64.10
2018-12-13T02:03:17.134Z,64.10
2018-12-13T02:03:50.537Z,64.10
2018-12-13T02:04:24.590Z,64.20
2018-12-13T02:04:58.043Z,64.20
2018-12-13T02:05:31.571Z,64.10
2018-12-13T02:06:05.042Z,64.30
2018-12-13T02:06:39.242Z,64.30
2018-12-13T02:07:12.762Z,64.60
2018-12-13T02:07:46.317Z,64.70
2018-12-13T02:08:19.781Z,64.70
2018-12-13T02:08:53.238Z,64.60
2018-12-13T02:09:26.750Z,64.80
2018-12-13T02:10:00.231Z,64.80
2018-12-13T02:10:33.798Z,64.90
2018-12-13T02:11:07.216Z,64.90
2018-12-13T02:11:40.705Z,65.00
2018-12-13T02:12:14.220Z,64.90
2018-12-13T02:12:47.690Z,65.10
2018-12-13T02:13:21.132Z,65.10
2018-12-13T02:13:54.569Z,65.10
2018-12-13T02:14:28.783Z,65.20
2018-12-13T02:15:02.257Z,65.10
2018-12-13T02:15:35.708Z,65.00
2018-12-13T02:16:10.157Z,65.00
2018-12-13T02:16:44.350Z,65.20
2018-12-13T02:17:17.799Z,65.20
2018-12-13T02:17:51.241Z,65.10
2018-12-13T02:18:24.693Z,65.10
2018-12-13T02:18:58.138Z,65.10
2018-12-13T02:19:32.187Z,65.30
2018-12-13T02:20:05.843Z,65.30
2018-12-13T02:20:39.535Z,65.30
2018-12-13T02:21:12.977Z,65.20
2018-12-13T02:21:46.518Z,65.30
2018-12-13T02:22:20.010Z,65.30
2018-12-13T02:22:53.454Z,65.30
2018-12-13T02:23:27.795Z,65.40
2018-12-13T02:24:01.245Z,65.70
2018-12-13T02:24:34.712Z,65.70
2018-12-13T02:25:08.299Z,65.70
2018-12-13T02:25:41.745Z,65.80
2018-12-13T02:26:15.169Z,65.90
2018-12-13T02:26:49.424Z,65.80
2018-12-13T02:27:22.817Z,65.80
2018-12-13T02:27:56.281Z,65.70
2018-12-13T02:28:29.834Z,65.80
2018-12-13T02:29:03.368Z,65.90
2018-12-13T02:29:36.834Z,65.90
2018-12-13T02:30:11.587Z,65.80
2018-12-13T02:30:45.087Z,65.80
2018-12-13T02:31:18.742Z,65.90
2018-12-13T02:31:52.249Z,66.00
2018-12-13T02:32:25.686Z,66.00
2018-12-13T02:32:59.190Z,66.10
2018-12-13T02:33:32.690Z,66.00
2018-12-13T02:34:06.218Z,66.20
2018-12-13T02:34:39.755Z,66.20
2018-12-13T02:35:13.292Z,66.10
2018-12-13T02:35:46.751Z,66.00
2018-12-13T02:36:20.230Z,66.00
2018-12-13T02:36:53.666Z,66.20
2018-12-13T02:37:27.153Z,66.20
2018-12-13T02:38:00.594Z,66.20
2018-12-13T02:38:34.187Z,66.20
2018-12-13T02:39:07.813Z,66.20
2018-12-13T02:39:41.938Z,66.20
2018-12-13T02:40:15.419Z,66.20
2018-12-13T02:40:48.884Z,66.20
2018-12-13T02:41:23.489Z,66.20
2018-12-13T02:41:56.926Z,66.20
2018-12-13T02:42:30.443Z,66.40
2018-12-13T02:43:03.937Z,66.30
2018-12-13T02:43:37.363Z,66.30
2018-12-13T02:44:10.777Z,66.10
2018-12-13T02:44:44.310Z,66.30
2018-12-13T02:45:17.802Z,66.40
2018-12-13T02:45:51.314Z,66.30
2018-12-13T02:46:24.763Z,66.40
2018-12-13T02:46:58.204Z,66.40
2018-12-13T02:47:31.842Z,66.30
2018-12-13T02:48:06.123Z,66.30
2018-12-13T02:48:39.562Z,66.30
2018-12-13T02:49:13.030Z,66.30
2018-12-13T02:49:46.465Z,66.30
2018-12-13T02:50:20.660Z,66.30
2018-12-13T02:50:54.118Z,66.30
2018-12-13T02:51:27.687Z,66.20
2018-12-13T02:52:01.206Z,66.20
2018-12-13T02:52:34.675Z,66.40
2018-12-13T02:53:08.170Z,66.50
2018-12-13T02:53:41.615Z,66.50
2018-12-13T02:54:15.093Z,66.40
2018-12-13T02:54:48.577Z,66.40
2018-12-13T02:55:22.061Z,66.50
2018-12-13T02:55:55.496Z,66.60
2018-12-13T02:56:29.052Z,66.50
2018-12-13T02:57:02.498Z,66.50
2018-12-13T02:57:36.018Z,66.60
2018-12-13T02:58:09.488Z,66.70
2018-12-13T02:58:43.050Z,66.70
2018-12-13T02:59:16.554Z,66.70
2018-12-13T02:59:50.070Z,66.70
2018-12-13T03:00:23.718Z,66.80
2018-12-13T03:00:57.164Z,66.80
2018-12-13T03:01:31.361Z,66.70
2018-12-13T03:02:04.872Z,66.90
2018-12-13T03:02:38.350Z,66.80
2018-12-13T03:03:11.870Z,66.80
2018-12-13T03:03:45.331Z,66.80
2018-12-13T03:04:18.737Z,66.90
2018-12-13T03:04:52.166Z,66.70
2018-12-13T03:05:25.655Z,66.70
2018-12-13T03:05:59.190Z,66.70
2018-12-13T03:06:32.723Z,67.30
2018-12-13T03:07:13.322Z,66.60
2018-12-13T03:07:41.598Z,66.50
2018-12-13T03:08:15.160Z,66.50
2018-12-13T03:08:48.592Z,66.50
2018-12-13T03:09:22.262Z,66.30
2018-12-13T03:09:55.695Z,66.30
2018-12-13T03:10:29.286Z,66.20
2018-12-13T03:11:02.731Z,66.10
2018-12-13T03:11:36.215Z,66.00
2018-12-13T03:12:09.813Z,65.90
2018-12-13T03:12:43.472Z,65.90
2018-12-13T03:13:16.984Z,65.90
2018-12-13T03:13:50.430Z,65.80
2018-12-13T03:14:23.899Z,65.80
2018-12-13T03:14:57.373Z,65.80
2018-12-13T03:15:30.849Z,65.90
2018-12-13T03:16:04.446Z,65.80
2018-12-13T03:16:37.934Z,65.80
2018-12-13T03:17:11.383Z,65.70
2018-12-13T03:17:44.881Z,65.60
2018-12-13T03:18:18.293Z,65.60
2018-12-13T03:18:51.734Z,65.60
2018-12-13T03:19:25.178Z,65.50
2018-12-13T03:19:58.692Z,65.40
2018-12-13T03:20:32.235Z,65.40
2018-12-13T03:21:05.878Z,65.30
2018-12-13T03:21:39.327Z,65.50
2018-12-13T03:22:12.800Z,65.60
2018-12-13T03:22:46.329Z,65.40
2018-12-13T03:23:20.262Z,65.50
2018-12-13T03:23:54.403Z,65.50
2018-12-13T03:24:29.157Z,65.40
2018-12-13T03:25:02.650Z,65.40
2018-12-13T03:25:36.097Z,65.40
2018-12-13T03:26:09.562Z,65.40
2018-12-13T03:26:43.047Z,65.60
2018-12-13T03:27:16.512Z,65.50
2018-12-13T03:27:50.075Z,65.40
2018-12-13T03:28:23.499Z,65.50
2018-12-13T03:28:57.042Z,65.40
2018-12-13T03:29:30.490Z,65.40
2018-12-13T03:30:04.787Z,65.40
2018-12-13T03:30:38.330Z,65.30
2018-12-13T03:31:11.817Z,65.40
2018-12-13T03:31:45.280Z,65.40
2018-12-13T03:32:18.698Z,65.30
2018-12-13T03:32:52.099Z,65.30
2018-12-13T03:33:25.570Z,65.20
2018-12-13T03:33:59.399Z,65.20
2018-12-13T03:34:32.833Z,65.10
2018-12-13T03:35:06.569Z,65.20
2018-12-13T03:35:40.497Z,65.10
2018-12-13T03:36:13.990Z,65.00
2018-12-13T03:36:48.175Z,65.00
2018-12-13T03:37:21.685Z,65.10
2018-12-13T03:37:55.299Z,65.30
2018-12-13T03:38:29.211Z,65.40
2018-12-13T03:39:04.092Z,65.40
2018-12-13T03:39:38.027Z,65.30
2018-12-13T03:40:11.692Z,65.40
2018-12-13T03:40:45.218Z,65.30
2018-12-13T03:41:18.709Z,65.30
2018-12-13T03:41:52.178Z,65.50
2018-12-13T03:42:25.588Z,65.50
2018-12-13T03:42:59.015Z,65.60
2018-12-13T03:43:32.606Z,65.50
2018-12-13T03:44:06.055Z,65.50
2018-12-13T03:44:39.545Z,66.20
2018-12-13T03:45:13.058Z,65.60
2018-12-13T03:45:46.504Z,65.70
2018-12-13T03:46:20.022Z,65.80
2018-12-13T03:46:54.099Z,65.80
2018-12-13T03:47:27.687Z,65.70
2018-12-13T03:48:01.167Z,65.70
2018-12-13T03:48:34.818Z,65.80
2018-12-13T03:49:08.297Z,65.90
2018-12-13T03:49:41.759Z,65.80
2018-12-13T03:50:15.254Z,65.90
2018-12-13T03:50:49.217Z,66.00
2018-12-13T03:51:22.844Z,66.00
2018-12-13T03:51:56.286Z,66.00
2018-12-13T03:52:29.811Z,66.10
2018-12-13T03:53:03.205Z,66.10
2018-12-13T03:53:37.263Z,66.00
2018-12-13T03:54:10.772Z,66.10
2018-12-13T03:54:44.275Z,66.20
2018-12-13T03:55:17.698Z,66.20
2018-12-13T03:55:51.708Z,66.20
2018-12-13T03:56:25.163Z,66.30
2018-12-13T03:56:58.955Z,66.30
2018-12-13T03:57:32.972Z,66.30
2018-12-13T03:58:06.421Z,66.20
2018-12-13T03:58:39.901Z,66.20
2018-12-13T03:59:13.348Z,66.30
2018-12-13T03:59:46.976Z,66.50
2018-12-13T04:00:20.443Z,66.40
2018-12-13T04:00:54.813Z,66.40
2018-12-13T04:01:28.903Z,66.50
2018-12-13T04:02:02.359Z,66.40
2018-12-13T04:02:36.448Z,66.40
2018-12-13T04:03:09.923Z,66.40
2018-12-13T04:03:44.066Z,66.40
2018-12-13T04:04:18.251Z,66.50
2018-12-13T04:04:52.401Z,66.50
2018-12-13T04:05:25.897Z,66.60
2018-12-13T04:05:59.360Z,66.50
2018-12-13T04:06:33.441Z,66.40
2018-12-13T04:07:06.927Z,66.40
2018-12-13T04:07:40.431Z,66.50
2018-12-13T04:08:14.533Z,66.50
2018-12-13T04:08:48.187Z,66.40
2018-12-13T04:09:21.753Z,66.40
2018-12-13T04:09:55.269Z,66.30
2018-12-13T04:10:29.145Z,66.30
2018-12-13T04:11:02.668Z,66.30
2018-12-13T04:11:36.164Z,66.30
2018-12-13T04:12:09.802Z,66.20
2018-12-13T04:12:43.197Z,66.30
2018-12-13T04:13:16.630Z,66.20
2018-12-13T04:13:50.770Z,66.20
2018-12-13T04:14:25.036Z,66.20
2018-12-13T04:14:58.548Z,66.20
2018-12-13T04:15:32.145Z,66.10
2018-12-13T04:16:05.571Z,66.10
2018-12-13T04:16:39.324Z,66.00
2018-12-13T04:17:13.496Z,66.10
2018-12-13T04:17:47.386Z,66.00
2018-12-13T04:18:20.862Z,66.00
2018-12-13T04:18:54.605Z,65.90
2018-12-13T04:19:28.097Z,66.00
2018-12-13T04:20:02.557Z,65.80
2018-12-13T04:20:36.723Z,65.90
2018-12-13T04:21:10.186Z,65.80
2018-12-13T04:21:43.592Z,65.70
2018-12-13T04:22:17.033Z,65.80
2018-12-13T04:22:50.503Z,65.80
2018-12-13T04:23:24.816Z,65.80
2018-12-13T04:23:58.270Z,66.00
2018-12-13T04:24:31.804Z,66.80
2018-12-13T04:25:05.490Z,66.00
2018-12-13T04:25:39.027Z,66.30
2018-12-13T04:26:12.477Z,66.20
2018-12-13T04:26:45.933Z,66.10
2018-12-13T04:27:19.425Z,66.10
2018-12-13T04:27:53.514Z,66.00
2018-12-13T04:28:27.657Z,66.00
2018-12-13T04:29:01.135Z,66.00
2018-12-13T04:29:34.552Z,66.00
2018-12-13T04:30:08.142Z,66.00
2018-12-13T04:30:42.305Z,66.00
2018-12-13T04:31:15.799Z,66.00
2018-12-13T04:31:49.215Z,65.80
2018-12-13T04:32:22.704Z,65.90
2018-12-13T04:32:56.157Z,66.00
2018-12-13T04:33:29.700Z,66.60
2018-12-13T04:34:03.180Z,66.00
2018-12-13T04:34:36.740Z,66.00
2018-12-13T04:35:10.887Z,66.00
2018-12-13T04:35:44.368Z,65.80
2018-12-13T04:36:17.900Z,65.80
2018-12-13T04:36:51.493Z,65.90
2018-12-13T04:37:25.510Z,65.80
2018-12-13T04:37:59.655Z,65.80
2018-12-13T04:38:33.105Z,65.70
2018-12-13T04:39:08.001Z,65.70
2018-12-13T04:39:41.564Z,65.60
2018-12-13T04:40:15.076Z,65.70
2018-12-13T04:40:48.560Z,65.70
2018-12-13T04:41:22.079Z,65.70
2018-12-13T04:41:55.570Z,65.70
2018-12-13T04:42:29.153Z,65.70
2018-12-13T04:43:02.764Z,65.70
2018-12-13T04:43:36.260Z,65.30
2018-12-13T04:44:09.707Z,65.60
2018-12-13T04:44:43.206Z,65.60
2018-12-13T04:45:17.297Z,65.70
2018-12-13T04:45:51.452Z,65.60
2018-12-13T04:46:25.024Z,65.60
2018-12-13T04:46:58.443Z,65.60
2018-12-13T04:47:31.955Z,65.70
2018-12-13T04:48:05.426Z,65.80
2018-12-13T04:48:38.930Z,65.90
2018-12-13T04:49:12.399Z,65.80
2018-12-13T04:49:45.884Z,65.70
2018-12-13T04:50:19.366Z,65.60
2018-12-13T04:50:52.839Z,65.60
2018-12-13T04:51:26.303Z,65.70
2018-12-13T04:51:59.781Z,65.70
2018-12-13T04:52:33.872Z,65.80
2018-12-13T04:53:07.546Z,65.80
2018-12-13T04:53:41.669Z,65.80
2018-12-13T04:54:15.369Z,65.80
2018-12-13T04:54:48.791Z,65.70
2018-12-13T04:55:22.300Z,65.60
2018-12-13T04:55:55.821Z,65.70
2018-12-13T04:56:29.386Z,65.60
2018-12-13T04:57:02.892Z,65.70
2018-12-13T04:57:36.364Z,65.70
2018-12-13T04:58:10.033Z,65.60
2018-12-13T04:58:44.090Z,65.60
2018-12-13T04:59:17.555Z,65.50
2018-12-13T04:59:51.061Z,65.50
2018-12-13T05:00:24.525Z,65.60
2018-12-13T05:00:58.023Z,65.40
2018-12-13T05:01:31.585Z,65.40
2018-12-13T05:02:05.676Z,65.40
2018-12-13T05:02:39.127Z,65.40
2018-12-13T05:03:13.293Z,65.40
2018-12-13T05:03:47.590Z,65.40
2018-12-13T05:04:21.086Z,65.30
2018-12-13T05:04:54.537Z,65.30
2018-12-13T05:05:27.991Z,65.30
2018-12-13T05:06:01.440Z,65.30
2018-12-13T05:06:34.857Z,65.30
2018-12-13T05:07:08.352Z,65.20
2018-12-13T05:07:42.085Z,65.30
2018-12-13T05:08:15.877Z,65.30
2018-12-13T05:08:50.296Z,65.20
2018-12-13T05:09:23.840Z,65.20
2018-12-13T05:09:57.364Z,65.20
2018-12-13T05:10:42.904Z,65.10
2018-12-13T05:11:16.481Z,65.30
2018-12-13T05:11:50.020Z,65.30
2018-12-13T05:12:24.321Z,65.30
2018-12-13T05:12:57.883Z,65.30
2018-12-13T05:13:31.628Z,65.20
2018-12-13T05:14:05.728Z,65.30
2018-12-13T05:14:39.354Z,65.10
2018-12-13T05:15:13.255Z,65.10
2018-12-13T05:15:46.883Z,65.10
2018-12-13T05:16:20.427Z,65.00
2018-12-13T05:16:54.709Z,64.80
2018-12-13T05:17:28.386Z,65.00
2018-12-13T05:18:01.922Z,64.80
2018-12-13T05:18:35.459Z,64.70
2018-12-13T05:19:10.109Z,64.60
2018-12-13T05:19:43.606Z,64.50
2018-12-13T05:20:17.116Z,64.40
2018-12-13T05:20:50.618Z,64.20
2018-12-13T05:21:24.112Z,64.20
2018-12-13T05:21:57.650Z,64.20
2018-12-13T05:22:31.675Z,64.10
2018-12-13T05:23:05.118Z,63.90
2018-12-13T05:23:38.618Z,63.80
2018-12-13T05:24:12.970Z,63.80
2018-12-13T05:24:46.451Z,63.80
2018-12-13T05:25:19.917Z,63.90
2018-12-13T05:25:53.425Z,63.70
2018-12-13T05:26:26.922Z,63.50
2018-12-13T05:27:00.889Z,63.60
2018-12-13T05:27:34.412Z,63.70
2018-12-13T05:28:08.615Z,63.30
2018-12-13T05:28:42.100Z,63.10
2018-12-13T05:29:15.562Z,63.10
2018-12-13T05:29:49.082Z,63.10
2018-12-13T05:30:22.576Z,63.10
2018-12-13T05:30:56.450Z,62.90
2018-12-13T05:31:30.775Z,62.90
2018-12-13T05:32:04.891Z,62.90
2018-12-13T05:32:39.081Z,62.90
2018-12-13T05:33:12.539Z,62.80
2018-12-13T05:33:46.088Z,62.70
2018-12-13T05:34:19.606Z,62.60
2018-12-13T05:34:53.044Z,62.60
2018-12-13T05:35:26.686Z,62.70
2018-12-13T05:36:00.218Z,62.60
2018-12-13T05:36:33.780Z,62.70
2018-12-13T05:37:07.262Z,62.50
2018-12-13T05:37:40.824Z,62.30
2018-12-13T05:38:14.321Z,62.20
2018-12-13T05:38:48.502Z,62.20
2018-12-13T05:39:22.029Z,62.00
2018-12-13T05:39:56.162Z,61.90
2018-12-13T05:40:29.794Z,61.90
2018-12-13T05:41:03.309Z,62.00
2018-12-13T05:41:37.488Z,61.90
2018-12-13T05:42:11.082Z,61.80
2018-12-13T05:42:44.680Z,61.60
2018-12-13T05:43:18.158Z,61.60
2018-12-13T05:43:54.745Z,61.50
2018-12-13T05:44:28.285Z,61.40
2018-12-13T05:45:02.527Z,61.50
2018-12-13T05:45:36.016Z,61.80
2018-12-13T05:46:09.849Z,61.60
2018-12-13T05:46:43.430Z,61.60
2018-12-13T05:47:16.935Z,61.30
2018-12-13T05:47:50.632Z,61.40
2018-12-13T05:48:24.068Z,61.40
2018-12-13T05:48:57.505Z,61.60
2018-12-13T05:49:30.914Z,61.60
2018-12-13T05:50:04.983Z,61.60
2018-12-13T05:50:38.378Z,61.60
2018-12-13T05:51:11.866Z,61.40
2018-12-13T05:51:45.396Z,61.40
2018-12-13T05:52:18.886Z,61.50
2018-12-13T05:52:52.421Z,62.30
2018-12-13T05:53:25.894Z,61.40
2018-12-13T05:53:59.334Z,61.40
2018-12-13T05:54:32.827Z,61.30
2018-12-13T05:55:06.934Z,61.30
2018-12-13T05:55:40.509Z,61.40
2018-12-13T05:56:14.030Z,61.50
2018-12-13T05:56:47.593Z,61.40
2018-12-13T05:57:21.038Z,61.30
2018-12-13T05:57:54.530Z,62.00
2018-12-13T05:58:28.068Z,61.40
2018-12-13T05:59:01.598Z,61.40
2018-12-13T05:59:35.066Z,61.40
2018-12-13T06:00:10.116Z,61.60
2018-12-13T06:00:43.602Z,61.70
2018-12-13T06:01:17.138Z,61.70
2018-12-13T06:01:51.727Z,61.80
2018-12-13T06:02:25.211Z,61.70
2018-12-13T06:02:58.739Z,61.80
2018-12-13T06:03:33.217Z,61.70
2018-12-13T06:04:06.848Z,61.70
2018-12-13T06:04:40.586Z,61.70
2018-12-13T06:05:14.148Z,61.80
2018-12-13T06:05:47.638Z,62.00
2018-12-13T06:06:21.089Z,62.00
2018-12-13T06:06:54.597Z,61.90
2018-12-13T06:07:29.042Z,61.80
2018-12-13T06:08:09.123Z,61.80
2018-12-13T06:08:42.654Z,62.00
2018-12-13T06:09:16.095Z,61.90
2018-12-13T06:09:49.655Z,61.90
2018-12-13T06:10:23.146Z,62.00
2018-12-13T06:10:56.689Z,62.00
2018-12-13T06:11:30.476Z,62.00
2018-12-13T06:12:03.968Z,61.90
2018-12-13T06:12:37.486Z,61.90
2018-12-13T06:13:10.969Z,62.00
2018-12-13T06:13:44.450Z,62.20
2018-12-13T06:14:18.379Z,62.30
2018-12-13T06:14:51.861Z,62.30
2018-12-13T06:15:25.321Z,62.30
2018-12-13T06:15:58.834Z,62.20
2018-12-13T06:16:32.886Z,62.30
2018-12-13T06:17:06.456Z,62.50
2018-12-13T06:17:40.972Z,62.40
2018-12-13T06:18:14.712Z,62.30
2018-12-13T06:18:48.765Z,62.50
2018-12-13T06:19:26.733Z,62.40
2018-12-13T06:19:58.177Z,62.50
2018-12-13T06:20:31.736Z,62.60
2018-12-13T06:21:11.702Z,62.60
2018-12-13T06:21:41.400Z,62.70
2018-12-13T06:22:14.871Z,62.60
2018-12-13T06:22:48.366Z,62.60
2018-12-13T06:23:22.401Z,62.60
2018-12-13T06:23:55.841Z,62.70
2018-12-13T06:24:29.305Z,62.90
2018-12-13T06:25:03.048Z,62.90
2018-12-13T06:25:36.810Z,62.80
2018-12-13T06:26:10.939Z,63.50
2018-12-13T06:26:44.433Z,62.80
2018-12-13T06:27:17.865Z,63.50
2018-12-13T06:27:51.383Z,62.80
2018-12-13T06:28:24.851Z,63.00
2018-12-13T06:28:58.330Z,63.00
2018-12-13T06:29:31.817Z,63.10
2018-12-13T06:30:07.554Z,63.10
2018-12-13T06:30:41.367Z,63.20
2018-12-13T06:31:14.857Z,63.30
2018-12-13T06:31:48.315Z,63.40
2018-12-13T06:32:21.714Z,63.40
2018-12-13T06:32:55.185Z,63.40
2018-12-13T06:33:28.667Z,63.50
2018-12-13T06:34:02.167Z,63.60
2018-12-13T06:34:35.636Z,63.80
2018-12-13T06:35:09.096Z,63.90
2018-12-13T06:35:42.544Z,64.00
2018-12-13T06:36:17.322Z,64.00
2018-12-13T06:36:50.815Z,64.10
2018-12-13T06:37:24.391Z,64.10
2018-12-13T06:38:01.323Z,64.20
2018-12-13T06:38:34.003Z,64.20
2018-12-13T06:39:08.386Z,64.20
2018-12-13T06:39:41.790Z,64.30
2018-12-13T06:40:15.699Z,64.30
2018-12-13T06:40:49.474Z,64.50
2018-12-13T06:41:22.964Z,64.60
2018-12-13T06:41:56.437Z,64.70
2018-12-13T06:42:30.572Z,64.70
2018-12-13T06:43:04.023Z,64.50
2018-12-13T06:43:37.497Z,64.60
2018-12-13T06:44:11.031Z,64.60
2018-12-13T06:44:44.458Z,64.50
2018-12-13T06:45:17.902Z,64.60
2018-12-13T06:45:51.445Z,64.50
2018-12-13T06:46:24.950Z,64.70
2018-12-13T06:46:58.450Z,64.70
2018-12-13T06:47:32.593Z,64.60
2018-12-13T06:48:06.068Z,64.60
2018-12-13T06:48:39.511Z,64.50
2018-12-13T06:49:13.581Z,64.60
2018-12-13T06:49:47.009Z,64.60
2018-12-13T06:50:20.488Z,64.50
2018-12-13T06:50:53.983Z,64.70
2018-12-13T06:51:27.760Z,64.70
2018-12-13T06:52:01.243Z,64.70
2018-12-13T06:52:34.728Z,64.60
2018-12-13T06:53:08.314Z,64.50
2018-12-13T06:53:41.781Z,64.60
2018-12-13T06:54:15.204Z,64.50
2018-12-13T06:54:48.748Z,64.60
2018-12-13T06:55:22.188Z,64.60
2018-12-13T06:55:55.615Z,64.50
2018-12-13T06:56:30.042Z,64.50
2018-12-13T06:57:03.454Z,64.60
2018-12-13T06:57:36.899Z,64.80
2018-12-13T06:58:10.313Z,64.90
2018-12-13T06:58:43.802Z,64.90
2018-12-13T06:59:17.298Z,64.90
2018-12-13T06:59:51.551Z,64.90
2018-12-13T07:00:25.058Z,64.90
2018-12-13T07:00:58.554Z,64.90
2018-12-13T07:01:31.996Z,64.80
2018-12-13T07:02:05.872Z,64.80
2018-12-13T07:02:39.942Z,64.70
2018-12-13T07:03:13.449Z,64.60
2018-12-13T07:03:46.940Z,64.50
2018-12-13T07:04:20.423Z,64.50
2018-12-13T07:04:54.751Z,64.50
2018-12-13T07:05:28.255Z,64.40
2018-12-13T07:06:01.738Z,64.40
2018-12-13T07:06:35.169Z,64.40
2018-12-13T07:07:08.665Z,64.50
2018-12-13T07:07:42.350Z,64.60
2018-12-13T07:08:16.429Z,64.40
2018-12-13T07:08:50.515Z,64.40
2018-12-13T07:09:25.706Z,64.30
2018-12-13T07:10:00.267Z,64.30
2018-12-13T07:10:35.166Z,64.30
2018-12-13T07:11:08.629Z,64.30
2018-12-13T07:11:42.071Z,64.20
2018-12-13T07:12:15.546Z,64.20
2018-12-13T07:12:48.949Z,64.20
2018-12-13T07:13:22.433Z,64.90
2018-12-13T07:13:55.934Z,64.20